sensor_id;sensor_type;location;lat;lon;timestamp;temperature;humidity
9772;DHT22;4925;52.588;13.370;2023-03-26T00:00:43;8.40;99.90
9772;DHT22;4925;52.588;13.370;2023-03-26T00:03:10;8.40;99.90
9772;DHT22;4925;52.588;13.370;2023-03-26T00:05:37;8.40;99.90
9772;DHT22;4925;52.588;13.370;2023-03-26T00:08:03;8.50;99.90
9772;DHT22;4925;52.588;13.370;2023-03-26T00:10:29;8.50;99.90
9772;DHT22;4925;52.588;13.370;2023-03-26T00:12:55;8.50;99.90
9772;DHT22;4925;52.588;13.370;2023-03-26T00:15:20;8.50;99.90
9772;DHT22;4925;52.588;13.370;2023-03-26T00:17:46;8.50;99.90
9772;DHT22;4925;52.588;13.370;2023-03-26T00:20:12;8.50;99.90
9772;DHT22;4925;52.588;13.370;2023-03-26T00:22:39;8.50;99.90
9772;DHT22;4925;52.588;13.370;2023-03-26T00:25:06;8.50;99.90
9772;DHT22;4925;52.588;13.370;2023-03-26T00:27:32;8.40;99.90
9772;DHT22;4925;52.588;13.370;2023-03-26T00:29:59;8.50;99.90
9772;DHT22;4925;52.588;13.370;2023-03-26T00:32:26;8.50;99.90
9772;DHT22;4925;52.588;13.370;2023-03-26T00:34:58;8.50;99.90
9772;DHT22;4925;52.588;13.370;2023-03-26T00:37:26;8.50;99.90
9772;DHT22;4925;52.588;13.370;2023-03-26T00:39:52;8.50;99.90
9772;DHT22;4925;52.588;13.370;2023-03-26T00:42:19;8.40;99.90
9772;DHT22;4925;52.588;13.370;2023-03-26T00:44:45;8.50;99.90
9772;DHT22;4925;52.588;13.370;2023-03-26T00:47:11;8.40;99.90
9772;DHT22;4925;52.588;13.370;2023-03-26T00:49:37;8.50;99.90
9772;DHT22;4925;52.588;13.370;2023-03-26T00:52:03;8.50;99.90
9772;DHT22;4925;52.588;13.370;2023-03-26T00:54:33;8.40;99.90
9772;DHT22;4925;52.588;13.370;2023-03-26T00:56:59;8.40;99.90
9772;DHT22;4925;52.588;13.370;2023-03-26T00:59:24;8.50;99.90
9772;DHT22;4925;52.588;13.370;2023-03-26T01:01:55;8.50;99.90
9772;DHT22;4925;52.588;13.370;2023-03-26T01:04:32;8.40;99.90
9772;DHT22;4925;52.588;13.370;2023-03-26T01:07:09;8.50;99.90
9772;DHT22;4925;52.588;13.370;2023-03-26T01:09:39;8.40;99.90
9772;DHT22;4925;52.588;13.370;2023-03-26T01:12:10;8.40;99.90
9772;DHT22;4925;52.588;13.370;2023-03-26T01:14:37;8.40;99.90
9772;DHT22;4925;52.588;13.370;2023-03-26T01:17:05;8.40;99.90
9772;DHT22;4925;52.588;13.370;2023-03-26T01:19:56;8.40;99.90
9772;DHT22;4925;52.588;13.370;2023-03-26T01:22:26;8.40;99.90
9772;DHT22;4925;52.588;13.370;2023-03-26T01:24:52;8.30;99.90
9772;DHT22;4925;52.588;13.370;2023-03-26T01:27:37;8.20;99.90
9772;DHT22;4925;52.588;13.370;2023-03-26T01:35:59;8.10;99.90
9772;DHT22;4925;52.588;13.370;2023-03-26T01:44:22;8.10;99.90
9772;DHT22;4925;52.588;13.370;2023-03-26T01:46:51;8.10;99.90
9772;DHT22;4925;52.588;13.370;2023-03-26T01:49:18;8.10;99.90
9772;DHT22;4925;52.588;13.370;2023-03-26T01:51:44;8.10;99.90
9772;DHT22;4925;52.588;13.370;2023-03-26T01:54:14;8.10;99.90
9772;DHT22;4925;52.588;13.370;2023-03-26T02:02:11;8.10;99.90
9772;DHT22;4925;52.588;13.370;2023-03-26T02:10:03;8.10;99.90
9772;DHT22;4925;52.588;13.370;2023-03-26T02:12:31;8.20;99.90
9772;DHT22;4925;52.588;13.370;2023-03-26T02:15:01;8.20;99.90
9772;DHT22;4925;52.588;13.370;2023-03-26T02:17:26;8.10;99.90
9772;DHT22;4925;52.588;13.370;2023-03-26T02:19:55;8.10;99.90
9772;DHT22;4925;52.588;13.370;2023-03-26T02:22:21;8.10;99.90
9772;DHT22;4925;52.588;13.370;2023-03-26T02:24:47;8.10;99.90
9772;DHT22;4925;52.588;13.370;2023-03-26T02:27:13;8.00;99.90
9772;DHT22;4925;52.588;13.370;2023-03-26T02:29:39;8.00;99.90
9772;DHT22;4925;52.588;13.370;2023-03-26T02:32:06;8.00;99.90
9772;DHT22;4925;52.588;13.370;2023-03-26T02:34:32;7.90;99.90
9772;DHT22;4925;52.588;13.370;2023-03-26T02:36:59;7.90;99.90
9772;DHT22;4925;52.588;13.370;2023-03-26T02:39:25;7.90;99.90
9772;DHT22;4925;52.588;13.370;2023-03-26T02:41:51;7.90;99.90
9772;DHT22;4925;52.588;13.370;2023-03-26T02:44:16;7.90;99.90
9772;DHT22;4925;52.588;13.370;2023-03-26T02:46:42;7.80;99.90
9772;DHT22;4925;52.588;13.370;2023-03-26T02:49:08;7.80;99.90
9772;DHT22;4925;52.588;13.370;2023-03-26T02:51:33;7.80;99.90
9772;DHT22;4925;52.588;13.370;2023-03-26T02:54:00;7.80;99.90
9772;DHT22;4925;52.588;13.370;2023-03-26T02:56:27;7.80;99.90
9772;DHT22;4925;52.588;13.370;2023-03-26T02:58:52;7.80;99.90
9772;DHT22;4925;52.588;13.370;2023-03-26T03:01:18;7.80;99.90
9772;DHT22;4925;52.588;13.370;2023-03-26T03:03:44;7.80;99.90
9772;DHT22;4925;52.588;13.370;2023-03-26T03:06:16;7.80;99.90
9772;DHT22;4925;52.588;13.370;2023-03-26T03:08:44;7.80;99.90
9772;DHT22;4925;52.588;13.370;2023-03-26T03:11:15;7.80;99.90
9772;DHT22;4925;52.588;13.370;2023-03-26T03:13:41;7.80;99.90
9772;DHT22;4925;52.588;13.370;2023-03-26T03:16:08;7.80;99.90
9772;DHT22;4925;52.588;13.370;2023-03-26T03:18:34;7.80;99.90
9772;DHT22;4925;52.588;13.370;2023-03-26T03:21:00;7.80;99.90
9772;DHT22;4925;52.588;13.370;2023-03-26T03:23:26;7.80;99.90
9772;DHT22;4925;52.588;13.370;2023-03-26T03:25:53;7.80;99.90
9772;DHT22;4925;52.588;13.370;2023-03-26T03:28:21;7.80;99.90
9772;DHT22;4925;52.588;13.370;2023-03-26T03:30:48;7.80;99.90
9772;DHT22;4925;52.588;13.370;2023-03-26T03:33:18;7.90;99.90
9772;DHT22;4925;52.588;13.370;2023-03-26T03:35:45;7.90;99.90
9772;DHT22;4925;52.588;13.370;2023-03-26T03:38:12;7.90;99.90
9772;DHT22;4925;52.588;13.370;2023-03-26T03:40:38;7.90;99.90
9772;DHT22;4925;52.588;13.370;2023-03-26T03:43:03;8.00;99.90
9772;DHT22;4925;52.588;13.370;2023-03-26T03:45:29;8.00;99.90
9772;DHT22;4925;52.588;13.370;2023-03-26T03:47:55;8.00;99.90
9772;DHT22;4925;52.588;13.370;2023-03-26T03:50:21;8.00;99.90
9772;DHT22;4925;52.588;13.370;2023-03-26T03:52:46;8.00;99.90
9772;DHT22;4925;52.588;13.370;2023-03-26T03:55:12;8.00;99.90
9772;DHT22;4925;52.588;13.370;2023-03-26T03:57:38;8.00;99.90
9772;DHT22;4925;52.588;13.370;2023-03-26T04:00:05;8.00;99.90
9772;DHT22;4925;52.588;13.370;2023-03-26T04:02:33;7.90;99.90
9772;DHT22;4925;52.588;13.370;2023-03-26T04:05:00;8.00;99.90
9772;DHT22;4925;52.588;13.370;2023-03-26T04:07:28;8.00;99.90
9772;DHT22;4925;52.588;13.370;2023-03-26T04:09:58;7.90;99.90
9772;DHT22;4925;52.588;13.370;2023-03-26T04:12:26;7.90;99.90
9772;DHT22;4925;52.588;13.370;2023-03-26T04:14:53;7.90;99.90
9772;DHT22;4925;52.588;13.370;2023-03-26T04:17:19;7.80;99.90
9772;DHT22;4925;52.588;13.370;2023-03-26T04:19:46;7.80;99.90
9772;DHT22;4925;52.588;13.370;2023-03-26T04:22:12;7.80;99.90
9772;DHT22;4925;52.588;13.370;2023-03-26T04:24:38;7.80;99.90
9772;DHT22;4925;52.588;13.370;2023-03-26T04:27:10;7.80;99.90
9772;DHT22;4925;52.588;13.370;2023-03-26T04:29:40;7.80;99.90
9772;DHT22;4925;52.588;13.370;2023-03-26T04:32:16;7.80;99.90
9772;DHT22;4925;52.588;13.370;2023-03-26T04:34:44;7.80;99.90
9772;DHT22;4925;52.588;13.370;2023-03-26T04:37:16;7.90;99.90
9772;DHT22;4925;52.588;13.370;2023-03-26T04:39:44;7.90;99.90
9772;DHT22;4925;52.588;13.370;2023-03-26T04:42:10;7.90;99.90
9772;DHT22;4925;52.588;13.370;2023-03-26T04:44:36;7.90;99.90
9772;DHT22;4925;52.588;13.370;2023-03-26T04:47:01;7.90;99.90
9772;DHT22;4925;52.588;13.370;2023-03-26T04:49:27;7.90;99.90
9772;DHT22;4925;52.588;13.370;2023-03-26T04:51:53;7.80;99.90
9772;DHT22;4925;52.588;13.370;2023-03-26T04:54:21;7.80;99.90
9772;DHT22;4925;52.588;13.370;2023-03-26T04:56:55;7.80;99.90
9772;DHT22;4925;52.588;13.370;2023-03-26T04:59:28;7.80;99.90
9772;DHT22;4925;52.588;13.370;2023-03-26T05:02:00;7.80;99.90
9772;DHT22;4925;52.588;13.370;2023-03-26T05:04:26;7.80;99.90
9772;DHT22;4925;52.588;13.370;2023-03-26T05:06:55;7.90;99.90
9772;DHT22;4925;52.588;13.370;2023-03-26T05:09:23;7.90;99.90
9772;DHT22;4925;52.588;13.370;2023-03-26T05:11:49;8.00;99.90
9772;DHT22;4925;52.588;13.370;2023-03-26T05:14:17;7.90;99.90
9772;DHT22;4925;52.588;13.370;2023-03-26T05:16:44;7.90;99.90
9772;DHT22;4925;52.588;13.370;2023-03-26T05:19:11;7.90;99.90
9772;DHT22;4925;52.588;13.370;2023-03-26T05:21:37;7.90;99.90
9772;DHT22;4925;52.588;13.370;2023-03-26T05:24:03;7.90;99.90
9772;DHT22;4925;52.588;13.370;2023-03-26T05:26:30;7.90;99.90
9772;DHT22;4925;52.588;13.370;2023-03-26T05:28:56;7.90;99.90
9772;DHT22;4925;52.588;13.370;2023-03-26T05:31:22;7.80;99.90
9772;DHT22;4925;52.588;13.370;2023-03-26T05:33:48;7.70;99.90
9772;DHT22;4925;52.588;13.370;2023-03-26T05:36:15;7.80;99.90
9772;DHT22;4925;52.588;13.370;2023-03-26T05:38:41;7.80;99.90
9772;DHT22;4925;52.588;13.370;2023-03-26T05:41:11;7.80;99.90
9772;DHT22;4925;52.588;13.370;2023-03-26T05:43:37;7.80;99.90
9772;DHT22;4925;52.588;13.370;2023-03-26T05:46:03;7.80;99.90
9772;DHT22;4925;52.588;13.370;2023-03-26T05:48:29;7.80;99.90
9772;DHT22;4925;52.588;13.370;2023-03-26T05:50:56;7.80;99.90
9772;DHT22;4925;52.588;13.370;2023-03-26T05:53:24;7.90;99.90
9772;DHT22;4925;52.588;13.370;2023-03-26T05:55:50;7.90;99.90
9772;DHT22;4925;52.588;13.370;2023-03-26T05:58:23;7.90;99.90
9772;DHT22;4925;52.588;13.370;2023-03-26T06:00:59;7.90;99.90
9772;DHT22;4925;52.588;13.370;2023-03-26T06:03:30;7.70;99.90
9772;DHT22;4925;52.588;13.370;2023-03-26T06:05:56;7.60;99.90
9772;DHT22;4925;52.588;13.370;2023-03-26T06:08:22;7.60;99.90
9772;DHT22;4925;52.588;13.370;2023-03-26T06:10:48;7.60;99.90
9772;DHT22;4925;52.588;13.370;2023-03-26T06:13:15;7.60;99.90
9772;DHT22;4925;52.588;13.370;2023-03-26T06:15:42;7.60;99.90
9772;DHT22;4925;52.588;13.370;2023-03-26T06:18:08;7.60;99.90
9772;DHT22;4925;52.588;13.370;2023-03-26T06:20:33;7.70;99.90
9772;DHT22;4925;52.588;13.370;2023-03-26T06:22:59;7.60;99.90
9772;DHT22;4925;52.588;13.370;2023-03-26T06:25:25;7.60;99.90
9772;DHT22;4925;52.588;13.370;2023-03-26T06:27:51;7.60;99.90
9772;DHT22;4925;52.588;13.370;2023-03-26T06:30:17;7.60;99.90
9772;DHT22;4925;52.588;13.370;2023-03-26T06:32:42;7.50;99.90
9772;DHT22;4925;52.588;13.370;2023-03-26T06:35:08;7.50;99.90
9772;DHT22;4925;52.588;13.370;2023-03-26T06:37:35;7.50;99.90
9772;DHT22;4925;52.588;13.370;2023-03-26T06:40:02;7.50;99.90
9772;DHT22;4925;52.588;13.370;2023-03-26T06:42:28;7.60;99.90
9772;DHT22;4925;52.588;13.370;2023-03-26T06:44:53;7.50;99.90
9772;DHT22;4925;52.588;13.370;2023-03-26T06:47:19;7.60;99.90
9772;DHT22;4925;52.588;13.370;2023-03-26T06:49:45;7.60;99.90
9772;DHT22;4925;52.588;13.370;2023-03-26T06:52:10;7.70;99.90
9772;DHT22;4925;52.588;13.370;2023-03-26T06:54:37;7.80;99.90
9772;DHT22;4925;52.588;13.370;2023-03-26T06:57:03;7.90;99.90
9772;DHT22;4925;52.588;13.370;2023-03-26T06:59:28;7.90;99.90
9772;DHT22;4925;52.588;13.370;2023-03-26T07:01:54;8.00;99.90
9772;DHT22;4925;52.588;13.370;2023-03-26T07:04:20;8.10;99.90
9772;DHT22;4925;52.588;13.370;2023-03-26T07:06:46;8.10;99.90
9772;DHT22;4925;52.588;13.370;2023-03-26T07:09:11;8.20;99.90
9772;DHT22;4925;52.588;13.370;2023-03-26T07:11:37;8.20;99.90
9772;DHT22;4925;52.588;13.370;2023-03-26T07:14:03;8.20;99.90
9772;DHT22;4925;52.588;13.370;2023-03-26T07:16:28;8.30;99.90
9772;DHT22;4925;52.588;13.370;2023-03-26T07:18:54;8.40;99.90
9772;DHT22;4925;52.588;13.370;2023-03-26T07:21:20;8.70;99.90
9772;DHT22;4925;52.588;13.370;2023-03-26T07:23:47;8.60;99.90
9772;DHT22;4925;52.588;13.370;2023-03-26T07:26:35;8.70;99.90
9772;DHT22;4925;52.588;13.370;2023-03-26T07:34:52;8.90;99.90
9772;DHT22;4925;52.588;13.370;2023-03-26T07:42:26;9.00;99.90
9772;DHT22;4925;52.588;13.370;2023-03-26T07:47:43;9.30;99.90
9772;DHT22;4925;52.588;13.370;2023-03-26T07:50:15;9.10;99.90
9772;DHT22;4925;52.588;13.370;2023-03-26T07:52:41;9.10;99.90
9772;DHT22;4925;52.588;13.370;2023-03-26T07:55:10;9.10;99.90
9772;DHT22;4925;52.588;13.370;2023-03-26T07:57:46;9.10;99.90
9772;DHT22;4925;52.588;13.370;2023-03-26T08:08:34;8.90;99.90
9772;DHT22;4925;52.588;13.370;2023-03-26T08:21:30;8.80;99.90
9772;DHT22;4925;52.588;13.370;2023-03-26T08:24:42;8.90;99.90
9772;DHT22;4925;52.588;13.370;2023-03-26T08:27:27;8.90;99.90
9772;DHT22;4925;52.588;13.370;2023-03-26T08:30:09;8.80;99.90
9772;DHT22;4925;52.588;13.370;2023-03-26T08:32:36;8.90;99.90
9772;DHT22;4925;52.588;13.370;2023-03-26T08:35:02;8.90;99.90
9772;DHT22;4925;52.588;13.370;2023-03-26T08:37:28;8.80;99.90
9772;DHT22;4925;52.588;13.370;2023-03-26T08:39:54;8.90;99.90
9772;DHT22;4925;52.588;13.370;2023-03-26T08:43:06;9.00;99.90
9772;DHT22;4925;52.588;13.370;2023-03-26T08:48:38;9.10;99.90
9772;DHT22;4925;52.588;13.370;2023-03-26T09:02:37;8.90;99.90
9772;DHT22;4925;52.588;13.370;2023-03-26T09:25:48;8.80;99.90
9772;DHT22;4925;52.588;13.370;2023-03-26T09:28:07;8.60;99.90
9772;DHT22;4925;52.588;13.370;2023-03-26T09:39:38;9.00;99.90
9772;DHT22;4925;52.588;13.370;2023-03-26T10:31:00;9.10;99.90
9772;DHT22;4925;52.588;13.370;2023-03-26T10:39:36;9.30;99.90
9772;DHT22;4925;52.588;13.370;2023-03-26T10:42:32;9.30;99.90
9772;DHT22;4925;52.588;13.370;2023-03-26T10:53:11;9.00;99.90
9772;DHT22;4925;52.588;13.370;2023-03-26T10:55:45;9.20;99.90
9772;DHT22;4925;52.588;13.370;2023-03-26T11:00:54;9.10;99.90
9772;DHT22;4925;52.588;13.370;2023-03-26T11:03:45;9.10;99.90
9772;DHT22;4925;52.588;13.370;2023-03-26T11:25:39;10.30;51.20
9772;DHT22;4925;52.588;13.370;2023-03-26T11:31:03;11.20;3.90
9772;DHT22;4925;52.588;13.370;2023-03-26T11:33:37;11.50;1.00
9772;DHT22;4925;52.588;13.370;2023-03-26T11:36:08;11.80;1.00
9772;DHT22;4925;52.588;13.370;2023-03-26T11:38:43;11.90;1.00
9772;DHT22;4925;52.588;13.370;2023-03-26T11:43:47;12.30;1.00
9772;DHT22;4925;52.588;13.370;2023-03-26T11:46:17;12.30;1.00
9772;DHT22;4925;52.588;13.370;2023-03-26T11:48:47;12.40;1.00
9772;DHT22;4925;52.588;13.370;2023-03-26T11:51:31;12.20;1.00
9772;DHT22;4925;52.588;13.370;2023-03-26T11:53:59;12.00;1.00
9772;DHT22;4925;52.588;13.370;2023-03-26T11:56:52;11.90;1.00
9772;DHT22;4925;52.588;13.370;2023-03-26T11:59:37;12.10;1.00
9772;DHT22;4925;52.588;13.370;2023-03-26T12:04:50;11.50;1.00
9772;DHT22;4925;52.588;13.370;2023-03-26T12:09:52;11.50;1.00
9772;DHT22;4925;52.588;13.370;2023-03-26T12:12:24;11.60;1.00
9772;DHT22;4925;52.588;13.370;2023-03-26T12:14:50;11.80;1.00
9772;DHT22;4925;52.588;13.370;2023-03-26T12:17:33;11.90;1.00
9772;DHT22;4925;52.588;13.370;2023-03-26T12:20:01;12.20;1.00
9772;DHT22;4925;52.588;13.370;2023-03-26T12:22:35;12.30;1.00
9772;DHT22;4925;52.588;13.370;2023-03-26T12:25:21;12.10;1.00
9772;DHT22;4925;52.588;13.370;2023-03-26T12:28:00;11.90;1.00
9772;DHT22;4925;52.588;13.370;2023-03-26T12:30:33;11.90;1.00
9772;DHT22;4925;52.588;13.370;2023-03-26T12:35:47;11.70;1.00
9772;DHT22;4925;52.588;13.370;2023-03-26T12:38:32;11.50;99.90
9772;DHT22;4925;52.588;13.370;2023-03-26T12:41:13;11.50;1.00
9772;DHT22;4925;52.588;13.370;2023-03-26T12:46:27;11.80;1.00
9772;DHT22;4925;52.588;13.370;2023-03-26T12:49:02;12.00;99.90
9772;DHT22;4925;52.588;13.370;2023-03-26T12:51:47;12.50;99.90
9772;DHT22;4925;52.588;13.370;2023-03-26T12:54:34;12.70;99.90
9772;DHT22;4925;52.588;13.370;2023-03-26T12:59:48;12.20;99.90
9772;DHT22;4925;52.588;13.370;2023-03-26T13:15:56;12.30;99.90
9772;DHT22;4925;52.588;13.370;2023-03-26T13:22:05;12.50;1.00
9772;DHT22;4925;52.588;13.370;2023-03-26T13:29:51;12.80;1.00
9772;DHT22;4925;52.588;13.370;2023-03-26T13:35:34;12.50;99.90
9772;DHT22;4925;52.588;13.370;2023-03-26T13:38:36;12.50;1.00
9772;DHT22;4925;52.588;13.370;2023-03-26T13:41:21;12.30;1.00
9772;DHT22;4925;52.588;13.370;2023-03-26T13:47:15;12.40;1.00
9772;DHT22;4925;52.588;13.370;2023-03-26T13:49:56;12.60;1.00
9772;DHT22;4925;52.588;13.370;2023-03-26T13:52:25;12.70;99.90
9772;DHT22;4925;52.588;13.370;2023-03-26T13:54:59;12.80;1.00
9772;DHT22;4925;52.588;13.370;2023-03-26T13:57:34;12.70;1.00
9772;DHT22;4925;52.588;13.370;2023-03-26T14:00:14;12.90;1.00
9772;DHT22;4925;52.588;13.370;2023-03-26T14:02:44;12.70;1.00
9772;DHT22;4925;52.588;13.370;2023-03-26T14:10:20;13.00;99.90
9772;DHT22;4925;52.588;13.370;2023-03-26T14:15:31;12.20;99.90
9772;DHT22;4925;52.588;13.370;2023-03-26T14:21:08;12.00;1.00
9772;DHT22;4925;52.588;13.370;2023-03-26T14:26:36;11.50;63.80
9772;DHT22;4925;52.588;13.370;2023-03-26T14:39:56;11.90;99.90
9772;DHT22;4925;52.588;13.370;2023-03-26T14:45:20;12.40;1.00
9772;DHT22;4925;52.588;13.370;2023-03-26T14:48:30;12.10;1.00
9772;DHT22;4925;52.588;13.370;2023-03-26T14:53:54;12.00;45.00
9772;DHT22;4925;52.588;13.370;2023-03-26T14:56:47;12.20;1.00
9772;DHT22;4925;52.588;13.370;2023-03-26T15:11:25;13.60;1.00
9772;DHT22;4925;52.588;13.370;2023-03-26T15:39:26;14.70;99.90
9772;DHT22;4925;52.588;13.370;2023-03-26T15:42:08;14.80;99.90
9772;DHT22;4925;52.588;13.370;2023-03-26T15:44:56;14.40;1.00
9772;DHT22;4925;52.588;13.370;2023-03-26T15:47:58;14.40;88.10
9772;DHT22;4925;52.588;13.370;2023-03-26T15:56:08;14.10;1.00
9772;DHT22;4925;52.588;13.370;2023-03-26T16:04:13;14.10;1.00
9772;DHT22;4925;52.588;13.370;2023-03-26T16:07:03;14.10;1.00
9772;DHT22;4925;52.588;13.370;2023-03-26T16:12:45;14.00;99.90
9772;DHT22;4925;52.588;13.370;2023-03-26T16:15:25;14.10;99.90
9772;DHT22;4925;52.588;13.370;2023-03-26T16:28:36;13.80;1.00
9772;DHT22;4925;52.588;13.370;2023-03-26T16:31:25;13.60;61.50
9772;DHT22;4925;52.588;13.370;2023-03-26T16:36:42;13.20;99.90
9772;DHT22;4925;52.588;13.370;2023-03-26T16:42:02;12.70;1.00
9772;DHT22;4925;52.588;13.370;2023-03-26T16:49:53;12.60;1.00
9772;DHT22;4925;52.588;13.370;2023-03-26T16:52:55;12.40;1.00
9772;DHT22;4925;52.588;13.370;2023-03-26T17:01:09;12.50;1.00
9772;DHT22;4925;52.588;13.370;2023-03-26T17:04:01;12.50;99.90
9772;DHT22;4925;52.588;13.370;2023-03-26T17:06:44;12.50;1.00
9772;DHT22;4925;52.588;13.370;2023-03-26T17:09:32;12.50;1.00
9772;DHT22;4925;52.588;13.370;2023-03-26T17:23:29;12.20;1.00
9772;DHT22;4925;52.588;13.370;2023-03-26T17:31:44;12.10;1.00
9772;DHT22;4925;52.588;13.370;2023-03-26T17:36:59;11.80;1.00
9772;DHT22;4925;52.588;13.370;2023-03-26T17:42:17;11.80;1.00
9772;DHT22;4925;52.588;13.370;2023-03-26T17:44:53;11.80;1.00
9772;DHT22;4925;52.588;13.370;2023-03-26T17:55:19;11.70;99.90
9772;DHT22;4925;52.588;13.370;2023-03-26T17:58:00;11.60;99.90
9772;DHT22;4925;52.588;13.370;2023-03-26T18:00:32;11.50;99.90
9772;DHT22;4925;52.588;13.370;2023-03-26T18:03:03;11.50;1.00
9772;DHT22;4925;52.588;13.370;2023-03-26T18:05:32;11.50;99.90
9772;DHT22;4925;52.588;13.370;2023-03-26T18:14:53;11.20;99.90
9772;DHT22;4925;52.588;13.370;2023-03-26T18:16:49;11.20;99.90
9772;DHT22;4925;52.588;13.370;2023-03-26T18:19:18;11.20;99.90
9772;DHT22;4925;52.588;13.370;2023-03-26T18:21:46;11.10;81.60
9772;DHT22;4925;52.588;13.370;2023-03-26T18:24:21;11.00;99.90
9772;DHT22;4925;52.588;13.370;2023-03-26T18:26:57;11.10;99.90
9772;DHT22;4925;52.588;13.370;2023-03-26T18:29:32;11.00;99.90
9772;DHT22;4925;52.588;13.370;2023-03-26T18:32:02;11.00;99.90
9772;DHT22;4925;52.588;13.370;2023-03-26T18:34:30;10.80;37.90
9772;DHT22;4925;52.588;13.370;2023-03-26T18:39:36;10.60;99.90
9772;DHT22;4925;52.588;13.370;2023-03-26T18:42:04;10.50;99.90
9772;DHT22;4925;52.588;13.370;2023-03-26T18:44:33;10.30;1.00
9772;DHT22;4925;52.588;13.370;2023-03-26T18:47:04;10.20;1.00
9772;DHT22;4925;52.588;13.370;2023-03-26T18:49:30;10.20;1.00
9772;DHT22;4925;52.588;13.370;2023-03-26T18:51:56;10.00;1.00
9772;DHT22;4925;52.588;13.370;2023-03-26T18:54:22;10.00;1.00
9772;DHT22;4925;52.588;13.370;2023-03-26T18:56:48;9.90;1.00
9772;DHT22;4925;52.588;13.370;2023-03-26T18:59:28;9.90;1.00
9772;DHT22;4925;52.588;13.370;2023-03-26T19:01:57;9.80;1.00
9772;DHT22;4925;52.588;13.370;2023-03-26T19:04:29;9.80;1.00
9772;DHT22;4925;52.588;13.370;2023-03-26T19:06:58;9.80;17.00
9772;DHT22;4925;52.588;13.370;2023-03-26T19:09:25;9.80;18.20
9772;DHT22;4925;52.588;13.370;2023-03-26T19:11:56;9.70;60.60
9772;DHT22;4925;52.588;13.370;2023-03-26T19:14:23;9.70;1.00
9772;DHT22;4925;52.588;13.370;2023-03-26T19:16:58;9.70;1.00
9772;DHT22;4925;52.588;13.370;2023-03-26T19:19:30;9.70;1.00
9772;DHT22;4925;52.588;13.370;2023-03-26T19:21:56;9.60;9.90
9772;DHT22;4925;52.588;13.370;2023-03-26T19:24:22;9.50;10.30
9772;DHT22;4925;52.588;13.370;2023-03-26T19:26:49;9.60;38.80
9772;DHT22;4925;52.588;13.370;2023-03-26T19:29:28;9.50;44.30
9772;DHT22;4925;52.588;13.370;2023-03-26T19:32:01;9.50;98.50
9772;DHT22;4925;52.588;13.370;2023-03-26T19:34:33;9.40;70.10
9772;DHT22;4925;52.588;13.370;2023-03-26T19:37:19;9.40;99.90
9772;DHT22;4925;52.588;13.370;2023-03-26T19:39:49;9.40;99.90
9772;DHT22;4925;52.588;13.370;2023-03-26T19:42:27;9.40;53.40
9772;DHT22;4925;52.588;13.370;2023-03-26T19:44:55;9.40;73.00
9772;DHT22;4925;52.588;13.370;2023-03-26T19:47:23;9.40;99.90
9772;DHT22;4925;52.588;13.370;2023-03-26T19:49:55;9.30;99.90
9772;DHT22;4925;52.588;13.370;2023-03-26T19:52:33;9.20;97.80
9772;DHT22;4925;52.588;13.370;2023-03-26T19:57:32;9.20;61.90
9772;DHT22;4925;52.588;13.370;2023-03-26T20:00:04;9.00;99.90
9772;DHT22;4925;52.588;13.370;2023-03-26T20:02:35;8.90;99.90
9772;DHT22;4925;52.588;13.370;2023-03-26T20:05:01;8.90;99.90
9772;DHT22;4925;52.588;13.370;2023-03-26T20:07:26;8.80;99.90
9772;DHT22;4925;52.588;13.370;2023-03-26T20:09:53;8.70;99.90
9772;DHT22;4925;52.588;13.370;2023-03-26T20:12:19;8.50;99.90
9772;DHT22;4925;52.588;13.370;2023-03-26T20:14:44;8.50;99.90
9772;DHT22;4925;52.588;13.370;2023-03-26T20:17:18;8.50;99.90
9772;DHT22;4925;52.588;13.370;2023-03-26T20:19:46;8.50;99.90
9772;DHT22;4925;52.588;13.370;2023-03-26T20:22:17;8.50;99.90
9772;DHT22;4925;52.588;13.370;2023-03-26T20:24:46;8.50;99.90
9772;DHT22;4925;52.588;13.370;2023-03-26T20:27:12;8.40;99.90
9772;DHT22;4925;52.588;13.370;2023-03-26T20:29:39;8.40;99.90
9772;DHT22;4925;52.588;13.370;2023-03-26T20:32:17;8.30;99.90
9772;DHT22;4925;52.588;13.370;2023-03-26T20:34:43;8.10;99.90
9772;DHT22;4925;52.588;13.370;2023-03-26T20:37:09;8.10;99.90
9772;DHT22;4925;52.588;13.370;2023-03-26T20:39:35;8.00;99.90
9772;DHT22;4925;52.588;13.370;2023-03-26T20:42:00;8.00;99.90
9772;DHT22;4925;52.588;13.370;2023-03-26T20:44:26;8.00;99.90
9772;DHT22;4925;52.588;13.370;2023-03-26T20:46:52;7.90;99.90
9772;DHT22;4925;52.588;13.370;2023-03-26T20:49:18;7.90;99.90
9772;DHT22;4925;52.588;13.370;2023-03-26T20:51:46;7.90;99.90
9772;DHT22;4925;52.588;13.370;2023-03-26T20:54:18;7.90;99.90
9772;DHT22;4925;52.588;13.370;2023-03-26T20:56:44;7.90;99.90
9772;DHT22;4925;52.588;13.370;2023-03-26T20:59:16;8.00;99.90
9772;DHT22;4925;52.588;13.370;2023-03-26T21:01:44;8.00;99.90
9772;DHT22;4925;52.588;13.370;2023-03-26T21:04:11;8.00;99.90
9772;DHT22;4925;52.588;13.370;2023-03-26T21:06:37;8.00;99.90
9772;DHT22;4925;52.588;13.370;2023-03-26T21:09:03;8.00;99.90
9772;DHT22;4925;52.588;13.370;2023-03-26T21:11:51;8.10;99.90
9772;DHT22;4925;52.588;13.370;2023-03-26T21:14:21;8.10;99.90
9772;DHT22;4925;52.588;13.370;2023-03-26T21:16:49;8.10;99.90
9772;DHT22;4925;52.588;13.370;2023-03-26T21:19:15;8.00;99.90
9772;DHT22;4925;52.588;13.370;2023-03-26T21:21:57;8.00;99.90
9772;DHT22;4925;52.588;13.370;2023-03-26T21:24:33;8.00;99.90
9772;DHT22;4925;52.588;13.370;2023-03-26T21:27:25;8.00;99.90
9772;DHT22;4925;52.588;13.370;2023-03-26T21:29:54;8.00;99.90
9772;DHT22;4925;52.588;13.370;2023-03-26T21:32:22;8.00;99.90
9772;DHT22;4925;52.588;13.370;2023-03-26T21:34:48;8.00;99.90
9772;DHT22;4925;52.588;13.370;2023-03-26T21:37:15;8.00;99.90
9772;DHT22;4925;52.588;13.370;2023-03-26T21:39:44;7.90;99.90
9772;DHT22;4925;52.588;13.370;2023-03-26T21:42:10;7.90;99.90
9772;DHT22;4925;52.588;13.370;2023-03-26T21:44:37;7.90;99.90
9772;DHT22;4925;52.588;13.370;2023-03-26T21:47:04;7.80;99.90
9772;DHT22;4925;52.588;13.370;2023-03-26T21:49:32;7.80;99.90
9772;DHT22;4925;52.588;13.370;2023-03-26T21:51:58;7.80;99.90
9772;DHT22;4925;52.588;13.370;2023-03-26T21:54:30;7.80;99.90
9772;DHT22;4925;52.588;13.370;2023-03-26T21:57:15;7.80;99.90
9772;DHT22;4925;52.588;13.370;2023-03-26T22:03:00;7.80;99.90
9772;DHT22;4925;52.588;13.370;2023-03-26T22:10:51;7.70;99.90
9772;DHT22;4925;52.588;13.370;2023-03-26T22:13:17;7.70;99.90
9772;DHT22;4925;52.588;13.370;2023-03-26T22:15:42;7.60;99.90
9772;DHT22;4925;52.588;13.370;2023-03-26T22:18:10;7.50;99.90
9772;DHT22;4925;52.588;13.370;2023-03-26T22:20:36;7.40;1.00
9772;DHT22;4925;52.588;13.370;2023-03-26T22:23:02;7.30;99.90
9772;DHT22;4925;52.588;13.370;2023-03-26T22:25:27;7.20;99.90
9772;DHT22;4925;52.588;13.370;2023-03-26T22:27:53;7.20;99.90
9772;DHT22;4925;52.588;13.370;2023-03-26T22:30:19;7.10;99.90
9772;DHT22;4925;52.588;13.370;2023-03-26T22:32:45;7.20;99.90
9772;DHT22;4925;52.588;13.370;2023-03-26T22:35:11;7.10;99.90
9772;DHT22;4925;52.588;13.370;2023-03-26T22:37:37;7.10;99.90
9772;DHT22;4925;52.588;13.370;2023-03-26T22:40:04;7.10;99.90
9772;DHT22;4925;52.588;13.370;2023-03-26T22:42:34;7.10;99.90
9772;DHT22;4925;52.588;13.370;2023-03-26T22:45:00;7.00;99.90
9772;DHT22;4925;52.588;13.370;2023-03-26T22:47:26;7.10;99.90
9772;DHT22;4925;52.588;13.370;2023-03-26T22:49:51;7.00;99.90
9772;DHT22;4925;52.588;13.370;2023-03-26T22:52:17;7.00;99.90